Time;durP1;ratioP1;P1;durP2;ratioP2;P2;SDS_P1;SDS_P2;PMS_P1;PMS_P2;Temp;Humidity;BMP_temperature;BMP_pressure;BME280_temperature;BME280_humidity;BME280_pressure;Samples;Min_cycle;Max_cycle;Signal;HPM_P1;HPM_P2
2023/05/25 00:01:36;;;;;;;;;;;;;;;;;;2218428;58;1872;-17
2023/05/25 00:04:09;;;;;;;;;;;;;;;;;;2218189;66;1753;-17
2023/05/25 00:06:40;;;;;;;;;;;;;;;;;;2218290;66;2547;-17
2023/05/25 00:09:11;;;;;;;;;;;;;;;;;;2218671;66;2164;-17
2023/05/25 00:11:41;;;;;;;;;;;;;;;;;;2218402;66;2008;-17
2023/05/25 00:14:12;;;;;;;;;;;;;;;;;;2218075;66;1762;-17
2023/05/25 00:16:43;;;;;;;;;;;;;;;;;;2215642;66;2857;-17
2023/05/25 00:19:14;;;;;;;;;;;;;;;;;;2216680;66;2365;-17
2023/05/25 00:21:47;;;;;;;;;;;;;;;;;;2218295;66;1673;-17
2023/05/25 00:24:17;;;;;;;;;;;;;;;;;;2215745;66;1911;-17
2023/05/25 00:26:47;;;;;;;;;;;;;;;;;;2216326;66;2558;-17
2023/05/25 00:29:17;;;;;;;;;;;;;;;;;;2217105;58;2451;-17
2023/05/25 00:31:49;;;;;;;;;;;;;;;;;;2215569;66;1983;-17
2023/05/25 00:34:20;;;;;;;;;;;;;;;;;;2216805;59;1877;-17
2023/05/25 00:36:50;;;;;;;;;;;;;;;;;;2218389;58;2311;-17
2023/05/25 00:39:21;;;;;;;;;;;;;;;;;;2218405;58;1951;-17
2023/05/25 00:41:51;;;;;;;;;;;;;;;;;;2219359;66;1804;-17
2023/05/25 00:44:21;;;;;;;;;;;;;;;;;;2218755;66;1733;-17
2023/05/25 00:46:52;;;;;;;;;;;;;;;;;;2218245;58;2249;-17
2023/05/25 00:49:22;;;;;;;;;;;;;;;;;;2220631;58;1686;-17
2023/05/25 00:51:53;;;;;;;;;;;;;;;;;;2222142;58;1716;-17
2023/05/25 00:54:23;;;;;;;;;;;;;;;;;;2221136;58;1814;-17
2023/05/25 00:57:02;;;;;;;;;;;;;;;;;;2221503;66;2456;-17
2023/05/25 00:59:40;;;;;;;;;;;;;;;;;;2221327;59;2413;-17
2023/05/25 01:02:12;;;;;;;;;;;;;;;;;;2219301;58;1675;-17
2023/05/25 01:04:44;;;;;;;;;;;;;;;;;;2218078;66;1421;-17
2023/05/25 01:07:17;;;;;;;;;;;;;;;;;;2216681;66;1897;-17
2023/05/25 01:09:48;;;;;;;;;;;;;;;;;;2218869;66;1952;-19
2023/05/25 01:12:21;;;;;;;;;;;;;;;;;;2218627;59;2290;-17
2023/05/25 01:14:52;;;;;;;;;;;;;;;;;;2219253;66;1679;-17
2023/05/25 01:17:24;;;;;;;;;;;;;;;;;;2217627;66;2016;-18
2023/05/25 01:19:57;;;;;;;;;;;;;;;;;;2218312;66;1733;-18
2023/05/25 01:22:31;;;;;;;;;;;;;;;;;;2220430;66;1619;-18
2023/05/25 01:25:20;;;;;;;;;;;;;;;;;;2217163;66;1530;-18
2023/05/25 01:27:54;;;;;;;;;;;;;;;;;;2219547;59;1514;-18
2023/05/25 01:30:25;;;;;;;;;;;;;;;;;;2218256;66;2241;-18
2023/05/25 01:32:55;;;;;;;;;;;;;;;;;;2219377;66;1308;-18
2023/05/25 01:35:26;;;;;;;;;;;;;;;;;;2219094;59;2431;-18
2023/05/25 01:37:57;;;;;;;;;;;;;;;;;;2219095;66;2004;-18
2023/05/25 01:40:27;;;;;;;;;;;;;;;;;;2219400;59;2567;-18
2023/05/25 01:42:58;;;;;;;;;;;;;;;;;;2219215;59;2644;-18
2023/05/25 01:45:31;;;;;;;;;;;;;;;;;;2218299;58;3079;-18
2023/05/25 01:48:08;;;;;;;;;;;;;;;;;;2219715;59;2232;-18
2023/05/25 01:50:43;;;;;;;;;;;;;;;;;;2219790;58;2483;-18
2023/05/25 01:53:22;;;;;;;;;;;;;;;;;;2219335;58;2622;-18
2023/05/25 01:55:53;;;;;;;;;;;;;;;;;;2218830;58;2675;-18
2023/05/25 01:58:25;;;;;;;;;;;;;;;;;;2218743;66;2304;-17
2023/05/25 02:00:56;;;;;;;;;;;;;;;;;;2218459;58;2232;-18
2023/05/25 02:03:27;;;;;;;;;;;;;;;;;;2219098;58;1877;-17
2023/05/25 02:05:57;;;;;;;;;;;;;;;;;;2218397;66;1780;-18
2023/05/25 02:08:27;;;;;;;;;;;;;;;;;;2219647;66;1498;-17
2023/05/25 02:10:57;;;;;;;;;;;;;;;;;;2216929;66;1764;-17
2023/05/25 02:13:31;;;;;;;;;;;;;;;;;;2219328;66;1758;-17
2023/05/25 02:16:01;;;;;;;;;;;;;;;;;;2218437;66;2158;-18
2023/05/25 02:18:31;;;;;;;;;;;;;;;;;;2218819;66;1994;-18
2023/05/25 02:21:05;;;;;;;;;;;;;;;;;;2218407;66;1970;-17
2023/05/25 02:23:35;;;;;;;;;;;;;;;;;;2219522;66;1376;-18
2023/05/25 02:26:05;;;;;;;;;;;;;;;;;;2218962;66;2432;-18
2023/05/25 02:28:35;;;;;;;;;;;;;;;;;;2219308;66;1678;-17
2023/05/25 02:31:06;;;;;;;;;;;;;;;;;;2217604;66;2940;-17
2023/05/25 02:33:36;;;;;;;;;;;;;;;;;;2219523;66;1481;-18
2023/05/25 02:36:07;;;;;;;;;;;;;;;;;;2217914;59;2460;-18
2023/05/25 02:38:37;;;;;;;;;;;;;;;;;;2218200;58;1902;-17
2023/05/25 02:41:07;;;;;;;;;;;;;;;;;;2219966;66;1687;-17
2023/05/25 02:43:38;;;;;;;;;;;;;;;;;;2219643;66;2846;-18
2023/05/25 02:46:08;;;;;;;;;;;;;;;;;;2218833;66;2905;-18
2023/05/25 02:48:38;;;;;;;;;;;;;;;;;;2218705;58;2111;-17
2023/05/25 02:51:09;;;;;;;;;;;;;;;;;;2219308;58;2009;-18
2023/05/25 02:53:39;;;;;;;;;;;;;;;;;;2218683;66;1995;-18
2023/05/25 02:56:09;;;;;;;;;;;;;;;;;;2218311;66;2857;-17
2023/05/25 02:58:40;;;;;;;;;;;;;;;;;;2220283;58;2206;-17
2023/05/25 03:01:17;;;;;;;;;;;;;;;;;;2219866;58;2491;-18
2023/05/25 03:03:51;;;;;;;;;;;;;;;;;;2221037;59;1885;-18
2023/05/25 03:06:21;;;;;;;;;;;;;;;;;;2220209;66;2786;-18
2023/05/25 03:08:52;;;;;;;;;;;;;;;;;;2220383;66;1686;-18
2023/05/25 03:11:22;;;;;;;;;;;;;;;;;;2219355;66;1685;-18
2023/05/25 03:14:02;;;;;;;;;;;;;;;;;;;;;
2023/05/25 03:16:37;;;;;;;;;;;;;;;;;;2218381;59;2783;-18
2023/05/25 03:19:09;;;;;;;;;;;;;;;;;;2218827;66;2001;-17
2023/05/25 03:21:39;;;;;;;;;;;;;;;;;;2219236;66;1755;-17
2023/05/25 03:24:09;;;;;;;;;;;;;;;;;;2218841;58;2810;-17
2023/05/25 03:26:40;;;;;;;;;;;;;;;;;;2219608;58;2427;-18
2023/05/25 03:29:10;;;;;;;;;;;;;;;;;;2219510;66;2344;-17
2023/05/25 03:31:41;;;;;;;;;;;;;;;;;;2220241;58;1910;-17
2023/05/25 03:34:11;;;;;;;;;;;;;;;;;;2220385;66;2100;-25
2023/05/25 03:36:44;;;;;;;;;;;;;;;;;;2219138;58;2262;-18
2023/05/25 03:39:14;;;;;;;;;;;;;;;;;;2215233;58;2862;-18
2023/05/25 03:41:45;;;;;;;;;;;;;;;;;;2218332;66;1870;-17
2023/05/25 03:44:15;;;;;;;;;;;;;;;;;;2215955;66;1662;-17
2023/05/25 03:46:45;;;;;;;;;;;;;;;;;;2218288;58;2734;-17
2023/05/25 03:49:16;;;;;;;;;;;;;;;;;;2219548;59;1992;-17
2023/05/25 03:51:46;;;;;;;;;;;;;;;;;;2219904;58;1378;-19
2023/05/25 03:54:16;;;;;;;;;;;;;;;;;;2220045;58;1811;-19
2023/05/25 03:56:47;;;;;;;;;;;;;;;;;;2219308;58;2325;-19
2023/05/25 03:59:17;;;;;;;;;;;;;;;;;;2217889;59;2173;-19
2023/05/25 04:01:47;;;;;;;;;;;;;;;;;;2219501;58;1737;-20
2023/05/25 04:04:18;;;;;;;;;;;;;;;;;;2218875;66;2244;-20
2023/05/25 04:06:48;;;;;;;;;;;;;;;;;;2218856;66;1853;-19
2023/05/25 04:09:25;;;;;;;;;;;;;;;;;;2218341;66;1624;-20
2023/05/25 04:11:55;;;;;;;;;;;;;;;;;;2219468;66;2029;-19
2023/05/25 04:14:25;;;;;;;;;;;;;;;;;;2219537;66;1384;-19
2023/05/25 04:16:55;;;;;;;;;;;;;;;;;;2219456;66;2536;-19
2023/05/25 04:19:26;;;;;;;;;;;;;;;;;;2219272;66;2002;-19
2023/05/25 04:21:56;;;;;;;;;;;;;;;;;;2219649;66;2015;-19
2023/05/25 04:24:26;;;;;;;;;;;;;;;;;;2219230;66;1561;-19
2023/05/25 04:26:56;;;;;;;;;;;;;;;;;;2218640;66;1922;-19
2023/05/25 04:29:27;;;;;;;;;;;;;;;;;;2218349;66;2631;-19
2023/05/25 04:31:57;;;;;;;;;;;;;;;;;;2219754;58;1397;-17
2023/05/25 04:34:28;;;;;;;;;;;;;;;;;;2219142;66;1513;-17
2023/05/25 04:37:03;;;;;;;;;;;;;;;;;;2217455;58;1980;-17
2023/05/25 04:39:34;;;;;;;;;;;;;;;;;;2219933;58;1937;-17
2023/05/25 04:42:04;;;;;;;;;;;;;;;;;;2219455;66;2121;-18
2023/05/25 04:44:36;;;;;;;;;;;;;;;;;;2219882;66;1898;-17
2023/05/25 04:47:06;;;;;;;;;;;;;;;;;;2218932;66;2830;-19
2023/05/25 04:49:37;;;;;;;;;;;;;;;;;;2219998;59;1520;-19
2023/05/25 04:52:07;;;;;;;;;;;;;;;;;;2219985;58;1799;-19
2023/05/25 04:54:37;;;;;;;;;;;;;;;;;;2217621;58;1230;-19
2023/05/25 04:57:08;;;;;;;;;;;;;;;;;;2219054;66;2472;-19
2023/05/25 04:59:38;;;;;;;;;;;;;;;;;;2218988;58;2798;-19
2023/05/25 05:02:09;;;;;;;;;;;;;;;;;;2218978;58;2214;-19
2023/05/25 05:04:40;;;;;;;;;;;;;;;;;;2217089;58;2447;-19
2023/05/25 05:07:13;;;;;;;;;;;;;;;;;;2215244;66;1745;-19
2023/05/25 05:09:43;;;;;;;;;;;;;;;;;;2218864;66;1379;-19
2023/05/25 05:12:14;;;;;;;;;;;;;;;;;;2219205;66;1672;-19
2023/05/25 05:14:44;;;;;;;;;;;;;;;;;;2220577;66;1726;-19
2023/05/25 05:17:14;;;;;;;;;;;;;;;;;;2218841;66;2637;-19
2023/05/25 05:19:44;;;;;;;;;;;;;;;;;;2219118;66;2225;-19
2023/05/25 05:22:15;;;;;;;;;;;;;;;;;;2219277;66;2023;-19
2023/05/25 05:24:45;;;;;;;;;;;;;;;;;;2219435;66;1623;-19
2023/05/25 05:27:15;;;;;;;;;;;;;;;;;;2218183;66;2491;-19
2023/05/25 05:29:46;;;;;;;;;;;;;;;;;;2219023;66;2230;-19
2023/05/25 05:32:16;;;;;;;;;;;;;;;;;;2219642;58;1594;-19
2023/05/25 05:34:46;;;;;;;;;;;;;;;;;;2219510;66;1350;-19
2023/05/25 05:37:23;;;;;;;;;;;;;;;;;;2218884;66;2331;-19
2023/05/25 05:39:53;;;;;;;;;;;;;;;;;;2219583;58;1791;-19
2023/05/25 05:42:26;;;;;;;;;;;;;;;;;;2216266;66;1819;-19
2023/05/25 05:44:59;;;;;;;;;;;;;;;;;;2220242;66;1783;-17
2023/05/25 05:47:30;;;;;;;;;;;;;;;;;;2219407;66;2770;-17
2023/05/25 05:50:00;;;;;;;;;;;;;;;;;;2219216;58;2491;-17
2023/05/25 05:52:31;;;;;;;;;;;;;;;;;;2220052;66;2134;-17
2023/05/25 05:55:01;;;;;;;;;;;;;;;;;;2220980;58;1859;-17
2023/05/25 05:57:31;;;;;;;;;;;;;;;;;;2219859;58;2970;-17
2023/05/25 06:00:05;;;;;;;;;;;;;;;;;;2218328;59;2401;-17
2023/05/25 06:02:35;;;;;;;;;;;;;;;;;;2219895;58;1457;-17
2023/05/25 06:05:06;;;;;;;;;;;;;;;;;;2219486;66;1596;-17
2023/05/25 06:07:37;;;;;;;;;;;;;;;;;;2218735;66;2506;-17
2023/05/25 06:10:07;;;;;;;;;;;;;;;;;;2220121;66;1812;-17
2023/05/25 06:12:38;;;;;;;;;;;;;;;;;;2221210;66;1617;-17
2023/05/25 06:15:08;;;;;;;;;;;;;;;;;;2220581;66;1540;-17
2023/05/25 06:17:38;;;;;;;;;;;;;;;;;;2218410;66;2301;-17
2023/05/25 06:20:09;;;;;;;;;;;;;;;;;;2218707;59;1774;-17
2023/05/25 06:22:40;;;;;;;;;;;;;;;;;;2219362;66;2147;-17
2023/05/25 06:25:10;;;;;;;;;;;;;;;;;;2218274;58;2266;-17
2023/05/25 06:27:41;;;;;;;;;;;;;;;;;;2218437;66;2851;-17
2023/05/25 06:30:11;;;;;;;;;;;;;;;;;;2218220;58;2851;-17
2023/05/25 06:32:42;;;;;;;;;;;;;;;;;;2220170;66;1350;-17
2023/05/25 06:35:18;;;;;;;;;;;;;;;;;;2218733;58;1799;-17
2023/05/25 06:37:49;;;;;;;;;;;;;;;;;;2216644;58;2341;-17
2023/05/25 06:40:19;;;;;;;;;;;;;;;;;;2218288;59;1448;-17
2023/05/25 06:42:49;;;;;;;;;;;;;;;;;;2219423;66;2147;-19
2023/05/25 06:45:20;;;;;;;;;;;;;;;;;;2220071;66;2108;-19
2023/05/25 06:47:50;;;;;;;;;;;;;;;;;;2218782;58;2336;-19
2023/05/25 06:50:21;;;;;;;;;;;;;;;;;;2219003;58;2173;-19
2023/05/25 06:52:51;;;;;;;;;;;;;;;;;;2218996;66;1369;-19
2023/05/25 06:55:21;;;;;;;;;;;;;;;;;;2219449;58;2290;-19
2023/05/25 06:57:51;;;;;;;;;;;;;;;;;;2218464;58;2455;-19
2023/05/25 07:00:22;;;;;;;;;;;;;;;;;;2219164;58;2501;-19
2023/05/25 07:02:52;;;;;;;;;;;;;;;;;;2218161;59;1489;-19
2023/05/25 07:05:22;;;;;;;;;;;;;;;;;;2218912;66;1875;-19
2023/05/25 07:07:53;;;;;;;;;;;;;;;;;;2217873;58;2983;-19
2023/05/25 07:10:23;;;;;;;;;;;;;;;;;;2219668;66;1931;-19
2023/05/25 07:12:54;;;;;;;;;;;;;;;;;;2218361;66;1654;-19
2023/05/25 07:15:25;;;;;;;;;;;;;;;;;;2219099;66;1900;-20
2023/05/25 07:17:56;;;;;;;;;;;;;;;;;;2217347;59;2291;-19
2023/05/25 07:20:26;;;;;;;;;;;;;;;;;;2217968;59;2866;-19
2023/05/25 07:22:56;;;;;;;;;;;;;;;;;;2219493;66;1447;-19
2023/05/25 07:25:26;;;;;;;;;;;;;;;;;;2219590;66;2132;-20
2023/05/25 07:27:57;;;;;;;;;;;;;;;;;;2218575;66;2952;-20
2023/05/25 07:30:27;;;;;;;;;;;;;;;;;;2218854;58;1817;-20
2023/05/25 07:32:57;;;;;;;;;;;;;;;;;;2218039;59;2535;-20
2023/05/25 07:35:28;;;;;;;;;;;;;;;;;;2219570;66;1641;-20
2023/05/25 07:37:58;;;;;;;;;;;;;;;;;;2218936;59;1966;-20
2023/05/25 07:40:29;;;;;;;;;;;;;;;;;;2218952;66;2080;-20
2023/05/25 07:42:59;;;;;;;;;;;;;;;;;;2218728;66;1763;-20
2023/05/25 07:45:30;;;;;;;;;;;;;;;;;;2219854;66;1530;-20
2023/05/25 07:48:00;;;;;;;;;;;;;;;;;;2217700;58;2506;-20
2023/05/25 07:50:30;;;;;;;;;;;;;;;;;;2218748;58;2604;-20
2023/05/25 07:53:01;;;;;;;;;;;;;;;;;;2218765;58;1542;-20
2023/05/25 07:55:31;;;;;;;;;;;;;;;;;;2220397;58;1602;-20
2023/05/25 07:58:02;;;;;;;;;;;;;;;;;;2218592;59;2253;-20
2023/05/25 08:00:32;;;;;;;;;;;;;;;;;;2217306;66;2326;-20
2023/05/25 08:03:03;;;;;;;;;;;;;;;;;;2218958;66;1516;-19
2023/05/25 08:05:33;;;;;;;;;;;;;;;;;;2218941;66;1492;-20
2023/05/25 08:08:03;;;;;;;;;;;;;;;;;;2218235;66;2439;-19
2023/05/25 08:10:34;;;;;;;;;;;;;;;;;;2218853;66;1763;-19
2023/05/25 08:13:04;;;;;;;;;;;;;;;;;;2219196;59;2327;-20
2023/05/25 08:15:34;;;;;;;;;;;;;;;;;;2219268;66;1436;-20
2023/05/25 08:18:05;;;;;;;;;;;;;;;;;;2219163;66;1984;-20
2023/05/25 08:20:36;;;;;;;;;;;;;;;;;;2219945;66;1684;-20
2023/05/25 08:23:07;;;;;;;;;;;;;;;;;;2220583;58;1287;-20
2023/05/25 08:25:37;;;;;;;;;;;;;;;;;;2218240;58;2539;-20
2023/05/25 08:28:07;;;;;;;;;;;;;;;;;;2219720;58;1777;-20
2023/05/25 08:30:37;;;;;;;;;;;;;;;;;;2219983;58;2465;-20
2023/05/25 08:33:11;;;;;;;;;;;;;;;;;;2219797;59;2353;-20
2023/05/25 08:35:42;;;;;;;;;;;;;;;;;;2219303;58;2384;-20
2023/05/25 08:38:12;;;;;;;;;;;;;;;;;;2219455;59;2587;-20
2023/05/25 08:40:44;;;;;;;;;;;;;;;;;;2219979;59;2163;-20
2023/05/25 08:43:17;;;;;;;;;;;;;;;;;;2216391;59;2856;-20
2023/05/25 08:45:48;;;;;;;;;;;;;;;;;;2219120;66;2073;-20
2023/05/25 08:48:21;;;;;;;;;;;;;;;;;;2218865;59;2400;-20
2023/05/25 08:50:51;;;;;;;;;;;;;;;;;;2219816;58;2783;-20
2023/05/25 08:53:22;;;;;;;;;;;;;;;;;;2219686;66;1450;-20
2023/05/25 08:55:54;;;;;;;;;;;;;;;;;;2220866;58;1624;-20
2023/05/25 08:58:29;;;;;;;;;;;;;;;;;;2217856;58;2408;-20
2023/05/25 09:01:02;;;;;;;;;;;;;;;;;;2220090;58;1460;-20
2023/05/25 09:03:33;;;;;;;;;;;;;;;;;;2219725;66;2183;-20
2023/05/25 09:06:04;;;;;;;;;;;;;;;;;;2219702;66;1948;-20
2023/05/25 09:08:36;;;;;;;;;;;;;;;;;;2219508;66;1566;-20
2023/05/25 09:11:06;;;;;;;;;;;;;;;;;;2219379;66;1331;-20
2023/05/25 09:13:37;;;;;;;;;;;;;;;;;;2222455;66;1734;-20
2023/05/25 09:16:07;;;;;;;;;;;;;;;;;;2219098;66;2460;-20
2023/05/25 09:18:38;;;;;;;;;;;;;;;;;;2219401;66;1908;-20
2023/05/25 09:21:09;;;;;;;;;;;;;;;;;;2217792;58;2372;-20
2023/05/25 09:23:39;;;;;;;;;;;;;;;;;;2219034;66;1314;-20
2023/05/25 09:26:09;;;;;;;;;;;;;;;;;;2217215;58;2911;-20
2023/05/25 09:28:46;;;;;;;;;;;;;;;;;;2217766;58;2638;-20
2023/05/25 09:31:17;;;;;;;;;;;;;;;;;;2216768;58;2952;-20
2023/05/25 09:33:47;;;;;;;;;;;;;;;;;;2218366;58;3582;-20
2023/05/25 09:36:19;;;;;;;;;;;;;;;;;;2216546;58;2659;-20
2023/05/25 09:38:51;;;;;;;;;;;;;;;;;;2215935;59;2418;-20
2023/05/25 09:41:23;;;;;;;;;;;;;;;;;;2218502;58;1827;-20
2023/05/25 09:43:53;;;;;;;;;;;;;;;;;;2219150;58;2172;-20
2023/05/25 09:46:24;;;;;;;;;;;;;;;;;;2217968;58;2149;-20
2023/05/25 09:48:55;;;;;;;;;;;;;;;;;;2214956;58;2252;-20
2023/05/25 09:51:25;;;;;;;;;;;;;;;;;;2217467;58;2455;-20
2023/05/25 09:53:56;;;;;;;;;;;;;;;;;;2218106;58;2118;-20
2023/05/25 09:56:31;;;;;;;;;;;;;;;;;;2218218;58;2435;-21
2023/05/25 09:59:01;;;;;;;;;;;;;;;;;;2218037;58;3092;-20
2023/05/25 10:01:33;;;;;;;;;;;;;;;;;;2218906;58;2638;-20
2023/05/25 10:04:03;;;;;;;;;;;;;;;;;;2218370;58;3160;-20
2023/05/25 10:06:33;;;;;;;;;;;;;;;;;;2217926;58;2919;-18
2023/05/25 10:09:08;;;;;;;;;;;;;;;;;;2219405;58;2771;-18
2023/05/25 10:11:42;;;;;;;;;;;;;;;;;;2220381;58;2724;-18
2023/05/25 10:14:14;;;;;;;;;;;;;;;;;;2220124;58;2696;-18
2023/05/25 10:16:47;;;;;;;;;;;;;;;;;;2220407;58;3179;-18
2023/05/25 10:19:41;;;;;;;;;;;;;;;;;;2220965;58;2615;-18
2023/05/25 10:22:22;;;;;;;;;;;;;;;;;;2223866;58;2431;-18
2023/05/25 10:24:53;;;;;;;;;;;;;;;;;;2223765;58;3340;-18
2023/05/25 10:27:28;;;;;;;;;;;;;;;;;;2222242;58;2351;-18
2023/05/25 10:30:00;;;;;;;;;;;;;;;;;;2220178;58;2660;-19
2023/05/25 10:32:35;;;;;;;;;;;;;;;;;;2220283;58;2908;-18
2023/05/25 10:35:06;;;;;;;;;;;;;;;;;;2218694;58;2493;-18
2023/05/25 10:37:37;;;;;;;;;;;;;;;;;;2219146;58;2379;-18
2023/05/25 10:40:08;;;;;;;;;;;;;;;;;;2219218;58;2793;-18
2023/05/25 10:42:39;;;;;;;;;;;;;;;;;;2218350;58;2222;-18
2023/05/25 10:45:10;;;;;;;;;;;;;;;;;;2219149;58;2640;-18
2023/05/25 10:47:41;;;;;;;;;;;;;;;;;;2218409;58;2726;-18
2023/05/25 10:50:23;;;;;;;;;;;;;;;;;;2218056;58;2468;-18
2023/05/25 10:53:15;;;;;;;;;;;;;;;;;;2219090;58;2822;-18
2023/05/25 10:55:59;;;;;;;;;;;;;;;;;;2217895;58;2639;-18
2023/05/25 10:58:30;;;;;;;;;;;;;;;;;;2218782;58;2741;-18
2023/05/25 11:01:01;;;;;;;;;;;;;;;;;;2219035;58;2757;-18
2023/05/25 11:03:47;;;;;;;;;;;;;;;;;;2218499;58;2717;-18
2023/05/25 11:06:20;;;;;;;;;;;;;;;;;;2216986;58;3418;-18
2023/05/25 11:09:05;;;;;;;;;;;;;;;;;;2217989;58;2750;-18
2023/05/25 11:11:57;;;;;;;;;;;;;;;;;;2218879;58;2682;-18
2023/05/25 11:14:32;;;;;;;;;;;;;;;;;;2211814;58;3550;-18
2023/05/25 11:17:03;;;;;;;;;;;;;;;;;;2217164;58;2956;-18
2023/05/25 11:19:49;;;;;;;;;;;;;;;;;;2217173;58;2945;-18
2023/05/25 11:22:34;;;;;;;;;;;;;;;;;;2219438;58;2659;-18
2023/05/25 11:25:23;;;;;;;;;;;;;;;;;;2217144;58;3109;-18
2023/05/25 11:28:01;;;;;;;;;;;;;;;;;;2218082;58;2825;-18
2023/05/25 11:30:35;;;;;;;;;;;;;;;;;;2217924;58;2621;-20
2023/05/25 11:33:06;;;;;;;;;;;;;;;;;;2217529;58;2616;-20
2023/05/25 11:35:36;;;;;;;;;;;;;;;;;;2216963;58;2658;-20
2023/05/25 11:38:09;;;;;;;;;;;;;;;;;;2218580;58;2685;-21
2023/05/25 11:40:40;;;;;;;;;;;;;;;;;;2217587;58;3286;-20
2023/05/25 11:43:11;;;;;;;;;;;;;;;;;;2217368;58;2831;-20
2023/05/25 11:45:43;;;;;;;;;;;;;;;;;;2217854;58;3012;-20
2023/05/25 11:48:14;;;;;;;;;;;;;;;;;;2215982;58;2133;-20
2023/05/25 11:50:45;;;;;;;;;;;;;;;;;;2217681;58;1954;-20
2023/05/25 11:53:15;;;;;;;;;;;;;;;;;;2218202;58;2153;-26
2023/05/25 11:55:48;;;;;;;;;;;;;;;;;;2218851;58;1796;-20
2023/05/25 11:58:19;;;;;;;;;;;;;;;;;;2218437;58;3090;-20
2023/05/25 12:00:49;;;;;;;;;;;;;;;;;;2218804;58;2206;-20
2023/05/25 12:03:31;;;;;;;;;;;;;;;;;;2217958;58;2270;-20
2023/05/25 12:06:04;;;;;;;;;;;;;;;;;;2219020;58;1848;-20
2023/05/25 12:08:35;;;;;;;;;;;;;;;;;;2218346;58;1876;-20
2023/05/25 12:11:05;;;;;;;;;;;;;;;;;;2218892;58;1828;-20
2023/05/25 12:13:39;;;;;;;;;;;;;;;;;;2216609;58;3059;-20
2023/05/25 12:16:09;;;;;;;;;;;;;;;;;;2217260;58;2901;-20
2023/05/25 12:18:40;;;;;;;;;;;;;;;;;;2218361;58;2007;-20
2023/05/25 12:21:10;;;;;;;;;;;;;;;;;;2216201;58;2787;-20
2023/05/25 12:23:40;;;;;;;;;;;;;;;;;;2218175;58;2147;-20
2023/05/25 12:26:12;;;;;;;;;;;;;;;;;;2217550;58;2657;-20
2023/05/25 12:28:59;;;;;;;;;;;;;;;;;;2221467;58;1800;-20
2023/05/25 12:31:33;;;;;;;;;;;;;;;;;;2220152;58;1819;-20
2023/05/25 12:34:17;;;;;;;;;;;;;;;;;;2218037;58;2335;-20
2023/05/25 12:36:51;;;;;;;;;;;;;;;;;;2219206;58;2179;-20
2023/05/25 12:39:37;;;;;;;;;;;;;;;;;;2218557;58;1937;-20
2023/05/25 12:42:12;;;;;;;;;;;;;;;;;;2219038;58;2142;-20
2023/05/25 12:44:43;;;;;;;;;;;;;;;;;;2219091;58;2016;-20
2023/05/25 12:47:26;;;;;;;;;;;;;;;;;;2217186;58;2061;-20
2023/05/25 12:50:13;;;;;;;;;;;;;;;;;;2216754;58;2228;-20
2023/05/25 12:52:43;;;;;;;;;;;;;;;;;;2218388;58;1813;-20
2023/05/25 12:55:26;;;;;;;;;;;;;;;;;;2218936;58;1997;-20
2023/05/25 12:57:57;;;;;;;;;;;;;;;;;;2217982;58;2105;-20
2023/05/25 13:00:27;;;;;;;;;;;;;;;;;;2219610;58;2378;-20
2023/05/25 13:02:58;;;;;;;;;;;;;;;;;;2218219;58;1837;-20
2023/05/25 13:05:31;;;;;;;;;;;;;;;;;;2218273;58;1918;-20
2023/05/25 13:08:03;;;;;;;;;;;;;;;;;;2217868;58;2035;-20
2023/05/25 13:10:36;;;;;;;;;;;;;;;;;;2219262;58;1783;-20
2023/05/25 13:13:06;;;;;;;;;;;;;;;;;;2218607;58;2316;-20
2023/05/25 13:15:37;;;;;;;;;;;;;;;;;;2218275;58;2112;-20
2023/05/25 13:18:07;;;;;;;;;;;;;;;;;;2218157;58;1944;-20
2023/05/25 13:20:37;;;;;;;;;;;;;;;;;;2218133;58;1885;-20
2023/05/25 13:23:07;;;;;;;;;;;;;;;;;;2217523;58;1760;-20
2023/05/25 13:25:38;;;;;;;;;;;;;;;;;;2217615;58;2169;-20
2023/05/25 13:28:08;;;;;;;;;;;;;;;;;;2218083;58;1821;-20
2023/05/25 13:30:38;;;;;;;;;;;;;;;;;;2218177;58;2025;-20
2023/05/25 13:33:09;;;;;;;;;;;;;;;;;;2217844;58;1882;-20
2023/05/25 13:35:57;;;;;;;;;;;;;;;;;;2218008;58;1834;-20
2023/05/25 13:38:28;;;;;;;;;;;;;;;;;;2217425;58;1943;-20
2023/05/25 13:40:58;;;;;;;;;;;;;;;;;;2216987;58;1816;-20
2023/05/25 13:43:29;;;;;;;;;;;;;;;;;;2218437;58;2152;-20
2023/05/25 13:45:59;;;;;;;;;;;;;;;;;;2218845;58;1808;-20
2023/05/25 13:48:29;;;;;;;;;;;;;;;;;;2218009;58;1992;-27
2023/05/25 13:51:02;;;;;;;;;;;;;;;;;;2217741;58;1930;-20
2023/05/25 13:53:32;;;;;;;;;;;;;;;;;;2218787;58;2052;-20
2023/05/25 13:56:02;;;;;;;;;;;;;;;;;;2220066;58;3139;-20
2023/05/25 13:58:32;;;;;;;;;;;;;;;;;;2221620;58;3069;-20
2023/05/25 14:01:03;;;;;;;;;;;;;;;;;;2219489;58;2425;-20
2023/05/25 14:03:33;;;;;;;;;;;;;;;;;;2219179;58;1845;-20
2023/05/25 14:06:03;;;;;;;;;;;;;;;;;;2217240;58;1905;-20
2023/05/25 14:08:34;;;;;;;;;;;;;;;;;;2217829;58;2251;-20
2023/05/25 14:11:04;;;;;;;;;;;;;;;;;;2218058;58;1930;-20
2023/05/25 14:13:35;;;;;;;;;;;;;;;;;;2217878;58;1905;-20
2023/05/25 14:16:08;;;;;;;;;;;;;;;;;;2216002;58;2560;-20
2023/05/25 14:18:38;;;;;;;;;;;;;;;;;;2217639;58;1928;-20
2023/05/25 14:21:11;;;;;;;;;;;;;;;;;;2217527;58;2206;-20
2023/05/25 14:23:42;;;;;;;;;;;;;;;;;;2217172;58;2302;-20
2023/05/25 14:26:12;;;;;;;;;;;;;;;;;;2217269;58;3055;-20
2023/05/25 14:28:42;;;;;;;;;;;;;;;;;;2216952;58;2023;-20
2023/05/25 14:31:12;;;;;;;;;;;;;;;;;;2218168;58;1929;-20
2023/05/25 14:33:43;;;;;;;;;;;;;;;;;;2218563;58;1855;-20
2023/05/25 14:36:14;;;;;;;;;;;;;;;;;;2219020;58;2280;-20
2023/05/25 14:38:45;;;;;;;;;;;;;;;;;;2218916;58;1969;-20
2023/05/25 14:41:15;;;;;;;;;;;;;;;;;;2218963;58;2591;-20
2023/05/25 14:43:45;;;;;;;;;;;;;;;;;;2217803;58;1895;-20
2023/05/25 14:46:16;;;;;;;;;;;;;;;;;;2218798;58;3033;-20
2023/05/25 14:48:46;;;;;;;;;;;;;;;;;;2218235;58;1779;-20
2023/05/25 14:51:16;;;;;;;;;;;;;;;;;;2218757;58;2453;-20
2023/05/25 14:53:46;;;;;;;;;;;;;;;;;;2218574;58;1808;-20
2023/05/25 14:56:23;;;;;;;;;;;;;;;;;;2217911;58;2168;-20
2023/05/25 14:58:53;;;;;;;;;;;;;;;;;;2218376;58;2433;-20
2023/05/25 15:01:24;;;;;;;;;;;;;;;;;;2218248;58;2289;-20
2023/05/25 15:03:54;;;;;;;;;;;;;;;;;;2217071;58;2464;-20
2023/05/25 15:06:24;;;;;;;;;;;;;;;;;;2217287;58;2432;-20
2023/05/25 15:08:54;;;;;;;;;;;;;;;;;;2218237;58;2479;-20
2023/05/25 15:11:25;;;;;;;;;;;;;;;;;;2218341;58;2148;-20
2023/05/25 15:13:59;;;;;;;;;;;;;;;;;;2218821;58;2284;-20
2023/05/25 15:16:29;;;;;;;;;;;;;;;;;;2217734;58;2093;-20
2023/05/25 15:18:59;;;;;;;;;;;;;;;;;;2218083;58;2329;-20
2023/05/25 15:21:30;;;;;;;;;;;;;;;;;;2217795;58;2640;-20
2023/05/25 15:24:00;;;;;;;;;;;;;;;;;;2216792;58;2555;-20
2023/05/25 15:26:30;;;;;;;;;;;;;;;;;;2217795;58;2258;-20
2023/05/25 15:29:01;;;;;;;;;;;;;;;;;;2218023;58;1997;-20
2023/05/25 15:31:31;;;;;;;;;;;;;;;;;;2217767;58;2181;-20
2023/05/25 15:34:10;;;;;;;;;;;;;;;;;;2218708;66;1813;-20
2023/05/25 15:36:40;;;;;;;;;;;;;;;;;;2218748;58;1334;-20
2023/05/25 15:39:11;;;;;;;;;;;;;;;;;;2217489;58;2632;-20
2023/05/25 15:41:42;;;;;;;;;;;;;;;;;;2218083;66;1313;-20
2023/05/25 15:44:12;;;;;;;;;;;;;;;;;;2217978;66;1333;-20
2023/05/25 15:46:42;;;;;;;;;;;;;;;;;;2218934;59;2182;-20
2023/05/25 15:49:19;;;;;;;;;;;;;;;;;;2217805;58;2155;-20
2023/05/25 15:51:52;;;;;;;;;;;;;;;;;;2216585;58;1811;-20
2023/05/25 15:54:22;;;;;;;;;;;;;;;;;;2218758;59;1318;-20
2023/05/25 15:56:52;;;;;;;;;;;;;;;;;;2218149;59;1869;-20
2023/05/25 15:59:22;;;;;;;;;;;;;;;;;;2218564;58;2261;-20
2023/05/25 16:01:52;;;;;;;;;;;;;;;;;;2219008;58;1128;-18
2023/05/25 16:04:23;;;;;;;;;;;;;;;;;;2216773;66;2431;-18
2023/05/25 16:06:53;;;;;;;;;;;;;;;;;;2217352;66;2538;-18
2023/05/25 16:09:23;;;;;;;;;;;;;;;;;;2218767;59;1765;-18
2023/05/25 16:11:53;;;;;;;;;;;;;;;;;;2218859;66;1495;-18
2023/05/25 16:14:24;;;;;;;;;;;;;;;;;;2218872;66;1148;-18
2023/05/25 16:16:54;;;;;;;;;;;;;;;;;;2217099;59;1827;-18
2023/05/25 16:19:24;;;;;;;;;;;;;;;;;;2217842;66;1944;-18
2023/05/25 16:21:55;;;;;;;;;;;;;;;;;;2218848;66;1764;-18
2023/05/25 16:24:25;;;;;;;;;;;;;;;;;;2219546;66;1311;-18
2023/05/25 16:26:56;;;;;;;;;;;;;;;;;;2218133;66;1958;-18
2023/05/25 16:29:26;;;;;;;;;;;;;;;;;;2217521;58;2291;-18
2023/05/25 16:31:57;;;;;;;;;;;;;;;;;;2218582;66;1217;-19
2023/05/25 16:34:27;;;;;;;;;;;;;;;;;;2218287;66;2403;-18
2023/05/25 16:37:00;;;;;;;;;;;;;;;;;;2218926;58;2463;-18
2023/05/25 16:39:30;;;;;;;;;;;;;;;;;;2219992;66;1936;-18
2023/05/25 16:42:01;;;;;;;;;;;;;;;;;;2219671;66;1811;-18
2023/05/25 16:44:31;;;;;;;;;;;;;;;;;;2221867;66;1379;-18
2023/05/25 16:47:02;;;;;;;;;;;;;;;;;;2219617;58;2419;-18
2023/05/25 16:49:32;;;;;;;;;;;;;;;;;;2223351;58;1271;-18
2023/05/25 16:52:02;;;;;;;;;;;;;;;;;;2222825;58;1704;-18
2023/05/25 16:54:32;;;;;;;;;;;;;;;;;;2221298;58;1909;-18
2023/05/25 16:57:03;;;;;;;;;;;;;;;;;;2220715;66;3204;-19
2023/05/25 16:59:33;;;;;;;;;;;;;;;;;;2221956;59;2162;-18
2023/05/25 17:02:03;;;;;;;;;;;;;;;;;;2220085;58;2286;-18
2023/05/25 17:04:33;;;;;;;;;;;;;;;;;;2220471;58;2485;-18
2023/05/25 17:07:04;;;;;;;;;;;;;;;;;;2219670;59;1732;-18
2023/05/25 17:09:34;;;;;;;;;;;;;;;;;;2221050;58;1286;-18
2023/05/25 17:12:05;;;;;;;;;;;;;;;;;;2219388;59;2223;-18
2023/05/25 17:14:35;;;;;;;;;;;;;;;;;;2219144;58;2386;-18
2023/05/25 17:17:05;;;;;;;;;;;;;;;;;;2219647;66;2474;-18
2023/05/25 17:19:36;;;;;;;;;;;;;;;;;;2220310;66;1972;-18
2023/05/25 17:22:06;;;;;;;;;;;;;;;;;;2220016;66;1200;-18
2023/05/25 17:24:36;;;;;;;;;;;;;;;;;;2219565;66;1539;-18
2023/05/25 17:27:06;;;;;;;;;;;;;;;;;;2218262;58;2365;-18
2023/05/25 17:29:37;;;;;;;;;;;;;;;;;;2218723;58;1921;-18
2023/05/25 17:32:10;;;;;;;;;;;;;;;;;;2218878;59;1742;-18
2023/05/25 17:34:40;;;;;;;;;;;;;;;;;;2218537;66;1788;-18